Rossville, Illinois
Current Conditions -  °F | °C
As of 11:35 PM on Monday 26 Jan 2015 (Local Time) from KDNV Reporting Station
Light Snow Light Snow  
Wind Chill: 22°   Ceiling: 500
Heat Index: 28°   Visibility: 5mi
Dew Point: 27°   Wind: 5mph
Humidity: 96%   Direction: 150°SSE
Pressure: 29.88"   Gusts: NA
Location:  40.38°N, 87.67°W
Report Text: KDNV 270535Z AUTO 15004KT 5SM -SN OVC005 M02/M03 A2988 RMK AO2 T10241029
Loading
Personal Weather Stations






























Interactive Weather Map New forecast layout! Learn more

10-Day Weather Forecast

Advertisements
Track Severe Weather on mobile